createdAt,value
2023-04-18T00:00:25.301Z,90.98
2023-04-18T00:02:55.088Z,91.16
2023-04-18T00:05:23.118Z,91.34
2023-04-18T00:07:51.468Z,91.43
2023-04-18T00:10:19.330Z,91.51
2023-04-18T00:12:47.329Z,91.63
2023-04-18T00:15:15.001Z,91.73
2023-04-18T00:17:42.702Z,91.87
2023-04-18T00:20:11.303Z,91.91
2023-04-18T00:22:43.881Z,91.96
2023-04-18T00:25:11.708Z,92.09
2023-04-18T00:27:39.632Z,92.17
2023-04-18T00:30:09.022Z,92.23
2023-04-18T00:32:38.945Z,92.29
2023-04-18T00:35:07.273Z,92.35
2023-04-18T00:37:35.099Z,92.40
2023-04-18T00:40:02.576Z,92.43
2023-04-18T00:42:30.029Z,92.53
2023-04-18T00:44:57.636Z,92.56
2023-04-18T00:47:25.819Z,92.65
2023-04-18T00:49:54.441Z,92.68
2023-04-18T00:52:22.082Z,92.74
2023-04-18T00:54:49.957Z,92.83
2023-04-18T00:57:17.839Z,92.83
2023-04-18T00:59:47.286Z,92.91
2023-04-18T01:02:14.823Z,92.97
2023-04-18T01:04:45.533Z,92.93
2023-04-18T01:07:13.142Z,93.01
2023-04-18T01:09:41.165Z,93.06
2023-04-18T01:12:08.682Z,93.14
2023-04-18T01:14:36.270Z,93.15
2023-04-18T01:17:04.091Z,93.19
2023-04-18T01:19:31.783Z,93.24
2023-04-18T01:21:59.713Z,93.26
2023-04-18T01:24:29.806Z,93.27
2023-04-18T01:26:57.573Z,93.27
2023-04-18T01:29:26.116Z,93.31
2023-04-18T01:31:53.827Z,93.22
2023-04-18T01:34:21.312Z,93.28
2023-04-18T01:36:48.880Z,93.35
2023-04-18T01:39:18.346Z,93.34
2023-04-18T01:41:46.340Z,93.38
2023-04-18T01:44:14.147Z,93.41
2023-04-18T01:46:41.950Z,93.41
2023-04-18T01:49:10.603Z,93.43
2023-04-18T01:51:39.016Z,93.45
2023-04-18T01:54:06.642Z,93.49
2023-04-18T01:56:34.253Z,93.53
2023-04-18T01:59:03.088Z,93.56
2023-04-18T02:01:30.590Z,93.54
2023-04-18T02:03:59.723Z,93.59
2023-04-18T02:06:27.297Z,93.57
2023-04-18T02:08:54.847Z,93.52
2023-04-18T02:11:25.565Z,93.55
2023-04-18T02:13:53.039Z,93.54
2023-04-18T02:16:20.706Z,93.53
2023-04-18T02:18:52.462Z,93.51
2023-04-18T02:21:20.014Z,93.56
2023-04-18T02:23:49.698Z,93.58
2023-04-18T02:26:17.212Z,93.50
2023-04-18T02:28:44.715Z,93.53
2023-04-18T02:31:14.890Z,93.44
2023-04-18T02:33:44.540Z,93.37
2023-04-18T02:36:15.252Z,93.23
2023-04-18T02:38:43.393Z,93.29
2023-04-18T02:41:15.122Z,93.28
2023-04-18T02:43:42.849Z,93.14
2023-04-18T02:46:10.797Z,93.09
2023-04-18T02:48:38.537Z,93.19
2023-04-18T02:51:08.913Z,93.15
2023-04-18T02:53:38.589Z,93.11
2023-04-18T02:56:07.109Z,93.10
2023-04-18T02:58:54.382Z,93.06
2023-04-18T03:01:47.699Z,93.04
2023-04-18T03:04:18.585Z,92.99
2023-04-18T03:07:04.288Z,93.01
2023-04-18T03:09:35.954Z,93.04
2023-04-18T03:12:08.856Z,93.04
2023-04-18T03:14:38.060Z,93.08
2023-04-18T03:17:06.287Z,93.08
2023-04-18T03:19:39.872Z,93.05
2023-04-18T03:22:10.668Z,93.04
2023-04-18T03:24:45.405Z,93.08
2023-04-18T03:27:13.690Z,93.04
2023-04-18T03:29:43.132Z,93.03
2023-04-18T03:32:11.549Z,92.95
2023-04-18T03:34:39.603Z,92.97
2023-04-18T03:37:08.721Z,93.07
2023-04-18T03:39:41.965Z,92.99
2023-04-18T03:42:10.176Z,92.95
2023-04-18T03:44:37.789Z,93.02
2023-04-18T03:47:06.004Z,93.07
2023-04-18T03:49:36.395Z,93.00
2023-04-18T03:52:04.739Z,93.06
2023-04-18T03:54:32.257Z,92.99
2023-04-18T03:56:59.846Z,92.98
2023-04-18T03:59:30.290Z,93.01
2023-04-18T04:01:57.845Z,93.08
2023-04-18T04:04:26.201Z,93.12
2023-04-18T04:06:54.086Z,93.21
2023-04-18T04:09:21.510Z,93.21
2023-04-18T04:11:50.970Z,93.20
2023-04-18T04:14:18.536Z,93.20
2023-04-18T04:16:47.067Z,93.18
2023-04-18T04:19:17.160Z,93.15
2023-04-18T04:22:07.807Z,93.07
2023-04-18T04:24:38.555Z,92.99
2023-04-18T04:27:08.092Z,92.95
2023-04-18T04:29:39.216Z,92.95
2023-04-18T04:32:08.176Z,92.81
2023-04-18T04:34:41.419Z,92.76
2023-04-18T04:37:14.021Z,92.63
2023-04-18T04:39:52.889Z,92.48
2023-04-18T04:42:41.140Z,92.43
2023-04-18T04:45:15.365Z,92.38
2023-04-18T04:47:42.932Z,92.32
2023-04-18T04:50:14.819Z,92.25
2023-04-18T04:52:42.767Z,92.21
2023-04-18T04:55:11.059Z,92.11
2023-04-18T04:57:38.599Z,91.90
2023-04-18T05:00:20.998Z,91.88
2023-04-18T05:02:50.142Z,91.80
2023-04-18T05:05:17.955Z,91.76
2023-04-18T05:07:45.644Z,91.74
2023-04-18T05:10:13.227Z,91.75
2023-04-18T05:12:40.682Z,91.63
2023-04-18T05:15:08.794Z,91.48
2023-04-18T05:17:36.457Z,91.46
2023-04-18T05:20:05.416Z,91.34
2023-04-18T05:22:33.080Z,90.91
2023-04-18T05:25:00.982Z,90.92
2023-04-18T05:27:28.678Z,90.76
2023-04-18T05:29:56.307Z,90.50
2023-04-18T05:32:23.844Z,90.36
2023-04-18T05:34:51.857Z,90.20
2023-04-18T05:37:19.310Z,90.12
2023-04-18T05:39:46.841Z,90.15
2023-04-18T05:42:14.454Z,90.16
2023-04-18T05:44:41.865Z,90.17
2023-04-18T05:47:09.372Z,90.40
2023-04-18T05:49:37.080Z,90.37
2023-04-18T05:52:04.848Z,90.37
2023-04-18T05:54:32.386Z,89.99
2023-04-18T05:57:01.311Z,89.54
2023-04-18T05:59:30.008Z,89.35
2023-04-18T06:01:57.541Z,88.86
2023-04-18T06:04:25.180Z,88.34
2023-04-18T06:06:52.917Z,88.42
2023-04-18T06:09:20.375Z,88.01
2023-04-18T06:11:47.968Z,88.17
2023-04-18T06:14:16.011Z,88.41
2023-04-18T06:16:43.761Z,87.92
2023-04-18T06:19:11.284Z,87.82
2023-04-18T06:21:39.585Z,87.08
2023-04-18T06:24:07.382Z,87.43
2023-04-18T06:26:35.446Z,87.95
2023-04-18T06:29:03.018Z,87.49
2023-04-18T06:31:30.668Z,87.23
2023-04-18T06:33:58.131Z,87.92
2023-04-18T06:36:27.548Z,86.78
2023-04-18T06:38:55.201Z,86.61
2023-04-18T06:41:22.848Z,85.13
2023-04-18T06:44:02.744Z,85.11
2023-04-18T06:46:33.128Z,84.98
2023-04-18T06:49:00.826Z,83.92
2023-04-18T06:51:29.045Z,83.92
2023-04-18T06:53:56.517Z,84.78
2023-04-18T06:56:23.984Z,84.84
2023-04-18T06:58:52.952Z,84.46
2023-04-18T07:01:20.896Z,84.62
2023-04-18T07:03:48.632Z,84.06
2023-04-18T07:06:16.332Z,82.56
2023-04-18T07:08:43.798Z,83.00
2023-04-18T07:11:13.322Z,83.11
2023-04-18T07:13:40.736Z,84.17
2023-04-18T07:16:09.805Z,83.33
2023-04-18T07:18:38.569Z,82.18
2023-04-18T07:21:09.142Z,81.67
2023-04-18T07:23:38.148Z,80.96
2023-04-18T07:26:06.019Z,81.66
2023-04-18T07:28:33.680Z,81.17
2023-04-18T07:31:03.144Z,78.35
2023-04-18T07:33:35.087Z,78.28
2023-04-18T07:36:03.227Z,77.05
2023-04-18T07:38:30.776Z,76.24
2023-04-18T07:41:00.793Z,77.26
2023-04-18T07:43:28.347Z,77.66
2023-04-18T07:45:56.009Z,77.14
2023-04-18T07:48:25.151Z,76.96
2023-04-18T07:50:53.407Z,77.95
2023-04-18T07:53:21.075Z,75.38
2023-04-18T07:55:48.473Z,75.10
2023-04-18T07:58:16.473Z,75.66
2023-04-18T08:00:44.908Z,74.08
2023-04-18T08:03:13.525Z,72.50
2023-04-18T08:05:42.963Z,72.38
2023-04-18T08:08:12.865Z,72.81
2023-04-18T08:10:40.437Z,72.73
2023-04-18T08:13:08.299Z,71.14
2023-04-18T08:15:36.030Z,69.82
2023-04-18T08:18:03.768Z,70.33
2023-04-18T08:20:31.379Z,70.53
2023-04-18T08:23:07.653Z,71.65
2023-04-18T08:25:36.595Z,69.82
2023-04-18T08:28:04.542Z,68.13
2023-04-18T08:30:32.031Z,66.93
2023-04-18T08:33:01.014Z,62.87
2023-04-18T08:35:28.727Z,66.85
2023-04-18T08:37:56.284Z,67.61
2023-04-18T08:40:25.040Z,69.64
2023-04-18T08:42:54.101Z,70.33
2023-04-18T08:45:21.578Z,71.78
2023-04-18T08:47:49.137Z,72.21
2023-04-18T08:50:17.293Z,70.85
2023-04-18T08:52:48.845Z,70.23
2023-04-18T08:55:16.531Z,70.28
2023-04-18T08:57:44.854Z,68.99
2023-04-18T09:00:13.325Z,69.06
2023-04-18T09:02:47.118Z,69.02
2023-04-18T09:05:20.050Z,67.51
2023-04-18T09:07:50.041Z,66.63
2023-04-18T09:10:33.510Z,66.63
2023-04-18T09:13:04.410Z,65.46
2023-04-18T09:15:32.555Z,65.25
2023-04-18T09:18:03.412Z,63.74
2023-04-18T09:20:35.733Z,64.88
2023-04-18T09:23:11.017Z,63.55
2023-04-18T09:25:51.011Z,63.85
2023-04-18T09:28:27.591Z,64.19
2023-04-18T09:31:13.452Z,64.71
2023-04-18T09:33:54.536Z,64.88
2023-04-18T09:36:29.258Z,63.79
2023-04-18T09:38:57.347Z,61.49
2023-04-18T09:41:24.906Z,64.27
2023-04-18T09:44:15.334Z,64.35
2023-04-18T09:46:47.086Z,62.20
2023-04-18T09:49:16.928Z,62.85
2023-04-18T09:51:46.270Z,61.98
2023-04-18T09:54:17.072Z,62.08
2023-04-18T09:56:46.387Z,61.29
2023-04-18T09:59:21.207Z,60.63
2023-04-18T10:01:50.872Z,57.40
2023-04-18T10:04:19.579Z,58.01
2023-04-18T10:06:47.419Z,58.49
2023-04-18T10:09:16.155Z,60.34
2023-04-18T10:11:44.838Z,61.52
2023-04-18T10:14:16.258Z,62.03
2023-04-18T10:16:49.275Z,61.66
2023-04-18T10:19:27.188Z,61.38
2023-04-18T10:22:00.936Z,60.10
2023-04-18T10:24:48.037Z,60.92
2023-04-18T10:27:17.849Z,60.54
2023-04-18T10:29:54.714Z,59.38
2023-04-18T10:32:23.787Z,59.71
2023-04-18T10:34:54.231Z,58.40
2023-04-18T10:37:21.803Z,56.49
2023-04-18T10:40:06.502Z,57.23
2023-04-18T10:42:52.247Z,53.77
2023-04-18T10:45:24.119Z,55.52
2023-04-18T10:48:32.746Z,57.18
2023-04-18T10:51:15.703Z,57.81
2023-04-18T10:53:56.509Z,57.94
2023-04-18T10:56:26.102Z,56.92
2023-04-18T10:58:54.273Z,58.63
2023-04-18T11:01:32.715Z,61.36
2023-04-18T11:04:01.613Z,65.70
2023-04-18T11:06:30.404Z,66.99
2023-04-18T11:09:13.554Z,69.34
2023-04-18T11:11:42.634Z,71.02
2023-04-18T11:14:10.622Z,72.50
2023-04-18T11:16:38.899Z,73.37
2023-04-18T11:19:27.324Z,73.59
2023-04-18T11:22:01.896Z,74.55
2023-04-18T11:24:29.576Z,74.33
2023-04-18T11:26:57.098Z,74.83
2023-04-18T11:29:24.619Z,75.80
2023-04-18T11:31:56.612Z,76.55
2023-04-18T11:34:31.099Z,78.34
2023-04-18T11:36:59.213Z,79.85
2023-04-18T11:39:26.747Z,81.63
2023-04-18T11:41:56.462Z,82.33
2023-04-18T11:44:25.860Z,83.56
2023-04-18T11:46:54.422Z,84.34
2023-04-18T11:49:30.366Z,85.60
2023-04-18T11:51:59.855Z,85.81
2023-04-18T11:54:44.938Z,85.57
2023-04-18T11:57:30.116Z,85.14
2023-04-18T12:00:00.893Z,84.93
2023-04-18T12:02:46.751Z,81.02
2023-04-18T12:05:32.835Z,79.95
2023-04-18T12:08:13.960Z,77.26
2023-04-18T12:10:52.264Z,75.90
2023-04-18T12:13:31.312Z,74.47
2023-04-18T12:16:02.821Z,73.58
2023-04-18T12:18:31.469Z,73.83
2023-04-18T12:21:01.850Z,73.14
2023-04-18T12:23:38.822Z,73.46
2023-04-18T12:26:11.570Z,72.83
2023-04-18T12:28:39.250Z,73.31
2023-04-18T12:31:07.415Z,73.68
2023-04-18T12:33:38.036Z,73.08
2023-04-18T12:36:08.176Z,72.87
2023-04-18T12:38:36.241Z,73.36
2023-04-18T12:41:03.912Z,71.77
2023-04-18T12:43:31.385Z,70.96
2023-04-18T12:45:59.592Z,71.07
2023-04-18T12:48:26.944Z,66.75
2023-04-18T12:50:54.330Z,66.67
2023-04-18T12:53:23.380Z,65.80
2023-04-18T12:55:51.536Z,65.28
2023-04-18T12:58:20.630Z,65.93
2023-04-18T13:00:48.242Z,63.27
2023-04-18T13:03:16.005Z,61.75
2023-04-18T13:05:43.839Z,62.86
2023-04-18T13:08:16.732Z,62.33
2023-04-18T13:10:48.489Z,63.66
2023-04-18T13:13:16.113Z,62.54
2023-04-18T13:15:44.209Z,65.10
2023-04-18T13:18:11.915Z,65.67
2023-04-18T13:20:39.453Z,67.18
2023-04-18T13:23:06.941Z,67.64
2023-04-18T13:25:34.437Z,68.20
2023-04-18T13:28:02.040Z,69.31
2023-04-18T13:30:30.218Z,69.33
2023-04-18T13:32:58.232Z,69.43
2023-04-18T13:35:25.706Z,70.77
2023-04-18T13:37:53.240Z,70.34
2023-04-18T13:40:20.924Z,69.28
2023-04-18T13:42:48.420Z,68.84
2023-04-18T13:45:16.099Z,67.97
2023-04-18T13:47:43.641Z,67.87
2023-04-18T13:50:11.430Z,65.49
2023-04-18T13:52:39.025Z,64.53
2023-04-18T13:55:07.653Z,61.89
2023-04-18T13:57:37.338Z,62.07
2023-04-18T14:00:06.741Z,60.98
2023-04-18T14:02:39.548Z,61.16
2023-04-18T14:05:08.044Z,63.00
2023-04-18T14:07:36.389Z,61.83
2023-04-18T14:10:04.856Z,62.81
2023-04-18T14:12:32.348Z,63.60
2023-04-18T14:14:59.972Z,63.70
2023-04-18T14:17:27.419Z,63.63
2023-04-18T14:19:55.257Z,63.78
2023-04-18T14:22:22.846Z,64.94
2023-04-18T14:24:52.408Z,63.35
2023-04-18T14:27:20.457Z,62.33
2023-04-18T14:29:48.937Z,62.20
2023-04-18T14:32:17.010Z,63.19
2023-04-18T14:34:44.573Z,63.15
2023-04-18T14:37:14.620Z,63.54
2023-04-18T14:39:43.115Z,64.11
2023-04-18T14:42:10.929Z,64.74
2023-04-18T14:44:38.467Z,64.61
2023-04-18T14:47:06.614Z,64.51
2023-04-18T14:49:34.259Z,64.57
2023-04-18T14:52:01.919Z,63.98
2023-04-18T14:54:31.602Z,63.38
2023-04-18T14:57:01.549Z,63.95
2023-04-18T14:59:29.005Z,64.79
2023-04-18T15:01:57.787Z,66.03
2023-04-18T15:04:25.582Z,66.49
2023-04-18T15:06:53.098Z,67.05
2023-04-18T15:09:20.915Z,67.15
2023-04-18T15:11:48.356Z,67.39
2023-04-18T15:14:16.315Z,67.82
2023-04-18T15:16:44.033Z,67.72
2023-04-18T15:19:11.474Z,67.72
2023-04-18T15:21:38.937Z,67.42
2023-04-18T15:24:07.012Z,67.59
2023-04-18T15:26:34.628Z,68.32
2023-04-18T15:29:05.515Z,68.73
2023-04-18T15:31:33.141Z,68.96
2023-04-18T15:34:01.260Z,69.84
2023-04-18T15:36:28.852Z,69.19
2023-04-18T15:38:56.357Z,69.03
2023-04-18T15:41:24.061Z,69.71
2023-04-18T15:43:52.935Z,69.29
2023-04-18T15:46:22.073Z,69.82
2023-04-18T15:48:49.653Z,70.44
2023-04-18T15:51:17.391Z,71.71
2023-04-18T15:53:44.871Z,71.94
2023-04-18T15:56:12.703Z,72.02
2023-04-18T15:58:41.362Z,72.70
2023-04-18T16:01:09.429Z,72.62
2023-04-18T16:03:37.328Z,73.28
2023-04-18T16:06:04.887Z,73.74
2023-04-18T16:08:33.364Z,73.61
2023-04-18T16:11:01.108Z,74.12
2023-04-18T16:13:28.594Z,74.16
2023-04-18T16:15:56.165Z,72.49
2023-04-18T16:18:23.843Z,70.47
2023-04-18T16:20:52.466Z,70.75
2023-04-18T16:23:20.523Z,69.83
2023-04-18T16:25:48.591Z,70.74
2023-04-18T16:28:16.320Z,70.70
2023-04-18T16:30:45.724Z,70.28
2023-04-18T16:33:13.522Z,70.87
2023-04-18T16:35:41.262Z,71.79
2023-04-18T16:38:08.794Z,72.58
2023-04-18T16:40:36.380Z,72.39
2023-04-18T16:43:04.023Z,73.02
2023-04-18T16:45:31.530Z,72.69
2023-04-18T16:47:59.167Z,73.08
2023-04-18T16:50:26.801Z,72.98
2023-04-18T16:52:54.481Z,73.28
2023-04-18T16:55:21.969Z,72.43
2023-04-18T16:57:49.902Z,71.98
2023-04-18T17:00:17.699Z,72.70
2023-04-18T17:02:45.407Z,72.19
2023-04-18T17:05:13.202Z,72.09
2023-04-18T17:07:40.723Z,72.45
2023-04-18T17:10:10.108Z,72.27
2023-04-18T17:12:37.900Z,72.52
2023-04-18T17:15:07.081Z,72.83
2023-04-18T17:17:35.461Z,72.49
2023-04-18T17:20:02.926Z,73.03
2023-04-18T17:22:30.316Z,73.11
2023-04-18T17:24:57.736Z,73.55
2023-04-18T17:27:25.273Z,73.61
2023-04-18T17:29:52.677Z,73.12
2023-04-18T17:32:21.154Z,74.32
2023-04-18T17:34:48.773Z,74.89
2023-04-18T17:37:17.156Z,75.31
2023-04-18T17:39:44.687Z,74.94
2023-04-18T17:42:12.130Z,75.08
2023-04-18T17:44:39.791Z,76.13
2023-04-18T17:47:07.556Z,76.04
2023-04-18T17:49:35.999Z,76.92
2023-04-18T17:52:04.536Z,75.59
2023-04-18T17:54:32.925Z,75.74
2023-04-18T17:57:01.927Z,75.58
2023-04-18T17:59:29.492Z,76.62
2023-04-18T18:01:57.585Z,77.46
2023-04-18T18:04:26.704Z,76.95
2023-04-18T18:06:58.431Z,77.27
2023-04-18T18:09:25.945Z,76.18
2023-04-18T18:11:55.817Z,75.74
2023-04-18T18:14:23.636Z,75.62
2023-04-18T18:16:51.209Z,75.86
2023-04-18T18:19:20.419Z,75.84
2023-04-18T18:21:47.835Z,76.13
2023-04-18T18:24:15.335Z,76.36
2023-04-18T18:26:42.848Z,77.15
2023-04-18T18:29:11.165Z,77.77
2023-04-18T18:31:39.171Z,77.13
2023-04-18T18:34:06.525Z,76.59
2023-04-18T18:36:35.172Z,76.77
2023-04-18T18:39:02.679Z,76.30
2023-04-18T18:41:30.632Z,76.35
2023-04-18T18:43:58.060Z,76.22
2023-04-18T18:46:27.716Z,76.14
2023-04-18T18:48:55.412Z,76.85
2023-04-18T18:51:23.768Z,77.06
2023-04-18T18:53:51.143Z,76.97
2023-04-18T18:56:18.484Z,77.00
2023-04-18T18:58:46.019Z,77.25
2023-04-18T19:01:14.682Z,77.33
2023-04-18T19:03:42.570Z,76.19
2023-04-18T19:06:10.364Z,75.44
2023-04-18T19:08:37.836Z,74.92
2023-04-18T19:11:05.379Z,74.63
2023-04-18T19:13:32.901Z,75.38
2023-04-18T19:16:00.507Z,76.31
2023-04-18T19:18:28.071Z,77.32
2023-04-18T19:20:56.827Z,77.72
2023-04-18T19:23:25.302Z,78.05
2023-04-18T19:25:52.783Z,78.04
2023-04-18T19:28:20.347Z,78.71
2023-04-18T19:30:48.350Z,79.34
2023-04-18T19:33:16.366Z,79.54
2023-04-18T19:35:43.872Z,79.01
2023-04-18T19:38:11.406Z,79.38
2023-04-18T19:40:39.089Z,79.43
2023-04-18T19:43:06.532Z,79.21
2023-04-18T19:45:34.108Z,78.95
2023-04-18T19:48:01.846Z,78.93
2023-04-18T19:50:29.387Z,78.89
2023-04-18T19:52:56.892Z,78.93
2023-04-18T19:55:25.732Z,79.44
2023-04-18T19:57:59.430Z,79.52
2023-04-18T20:00:27.760Z,79.49
2023-04-18T20:02:55.541Z,79.52
2023-04-18T20:05:23.214Z,79.58
2023-04-18T20:07:50.867Z,79.62
2023-04-18T20:10:23.687Z,79.71
2023-04-18T20:12:51.175Z,79.95
2023-04-18T20:15:18.744Z,80.62
2023-04-18T20:17:46.338Z,81.34
2023-04-18T20:20:13.979Z,82.67
2023-04-18T20:22:44.814Z,83.36
2023-04-18T20:25:12.888Z,84.39
2023-04-18T20:27:40.372Z,84.57
2023-04-18T20:30:08.662Z,85.01
2023-04-18T20:32:36.927Z,85.36
2023-04-18T20:35:04.700Z,85.72
2023-04-18T20:37:36.635Z,85.82
2023-04-18T20:40:11.287Z,86.13
2023-04-18T20:42:39.956Z,86.28
2023-04-18T20:45:12.839Z,86.48
2023-04-18T20:47:43.790Z,86.41
2023-04-18T20:50:11.443Z,86.47
2023-04-18T20:52:42.569Z,86.57
2023-04-18T20:55:11.090Z,86.76
2023-04-18T20:57:38.564Z,86.95
2023-04-18T21:00:09.992Z,86.95
2023-04-18T21:02:39.178Z,86.90
2023-04-18T21:05:07.635Z,86.95
2023-04-18T21:07:38.091Z,87.12
2023-04-18T21:10:06.265Z,87.42
2023-04-18T21:12:33.958Z,87.61
2023-04-18T21:15:01.526Z,87.95
2023-04-18T21:17:30.540Z,88.14
2023-04-18T21:19:58.069Z,88.31
2023-04-18T21:22:27.256Z,88.47
2023-04-18T21:24:54.765Z,88.62
2023-04-18T21:27:22.270Z,88.77
2023-04-18T21:29:49.747Z,88.79
2023-04-18T21:32:17.202Z,89.00
2023-04-18T21:34:44.955Z,88.96
2023-04-18T21:37:12.416Z,89.05
2023-04-18T21:39:39.847Z,89.04
2023-04-18T21:42:07.291Z,89.11
2023-04-18T21:44:35.246Z,89.17
2023-04-18T21:47:02.706Z,89.22
2023-04-18T21:49:30.226Z,89.31
2023-04-18T21:51:57.665Z,89.40
2023-04-18T21:54:25.240Z,89.50
2023-04-18T21:56:52.676Z,89.56
2023-04-18T21:59:21.030Z,89.59
2023-04-18T22:01:48.491Z,89.67
2023-04-18T22:04:16.816Z,89.71
2023-04-18T22:06:44.636Z,89.78
2023-04-18T22:09:12.737Z,89.79
2023-04-18T22:11:40.300Z,89.83
2023-04-18T22:14:09.949Z,89.88
2023-04-18T22:16:38.313Z,89.91
2023-04-18T22:19:06.542Z,89.95
2023-04-18T22:21:33.946Z,90.01
2023-04-18T22:24:01.545Z,89.99
2023-04-18T22:26:29.112Z,90.12
2023-04-18T22:28:56.574Z,90.24
2023-04-18T22:31:24.151Z,90.28
2023-04-18T22:33:51.809Z,90.28
2023-04-18T22:36:19.309Z,90.27
2023-04-18T22:38:46.821Z,90.32
2023-04-18T22:41:14.493Z,90.35
2023-04-18T22:43:43.869Z,90.47
2023-04-18T22:46:11.744Z,90.57
2023-04-18T22:48:39.208Z,90.71
2023-04-18T22:51:06.851Z,90.84
2023-04-18T22:53:34.395Z,91.01
2023-04-18T22:56:01.821Z,91.07
2023-04-18T22:58:29.754Z,91.06
2023-04-18T23:00:57.303Z,91.13
2023-04-18T23:03:24.898Z,91.14
2023-04-18T23:05:52.604Z,91.16
2023-04-18T23:08:22.577Z,91.15
2023-04-18T23:10:50.132Z,91.20
2023-04-18T23:13:17.594Z,91.19
2023-04-18T23:15:45.082Z,91.11
2023-04-18T23:18:12.688Z,91.09
2023-04-18T23:20:40.355Z,91.04
2023-04-18T23:23:07.845Z,91.10
2023-04-18T23:25:35.337Z,91.12
2023-04-18T23:28:02.949Z,91.19
